Time;durP1;ratioP1;P1;durP2;ratioP2;P2;SDS_P1;SDS_P2;PMS_P1;PMS_P2;Temp;Humidity;BMP_temperature;BMP_pressure;BME280_temperature;BME280_humidity;BME280_pressure;Samples;Min_cycle;Max_cycle;Signal;HPM_P1;HPM_P2
2023/05/31 00:00:06;;;;;;;8.07;1.67;;;9.30;99.90;;;;;;5110944;28;20403;-70
2023/05/31 00:02:31;;;;;;;1.63;1.00;;;9.30;99.90;;;;;;5092685;28;20234;-70
2023/05/31 00:04:57;;;;;;;3.13;0.95;;;9.20;99.90;;;;;;5110367;28;20083;-70
2023/05/31 00:07:23;;;;;;;1.25;0.95;;;9.20;99.90;;;;;;5092225;28;20062;-70
2023/05/31 00:09:49;;;;;;;1.45;0.70;;;9.10;99.90;;;;;;5091826;28;20042;-70
2023/05/31 00:12:14;;;;;;;2.15;1.27;;;9.10;99.90;;;;;;5092232;28;20092;-70
2023/05/31 00:14:40;;;;;;;3.38;1.23;;;9.10;99.90;;;;;;5092677;28;20036;-70
2023/05/31 00:17:06;;;;;;;2.85;1.20;;;9.10;99.90;;;;;;5091641;28;20035;-70
2023/05/31 00:19:32;;;;;;;3.55;0.93;;;9.10;99.90;;;;;;5092050;28;20122;-70
2023/05/31 00:21:58;;;;;;;1.98;0.82;;;9.00;99.90;;;;;;5075382;28;20061;-70
2023/05/31 00:24:23;;;;;;;2.78;0.73;;;9.00;99.90;;;;;;5074266;28;20040;-70
2023/05/31 00:26:49;;;;;;;1.85;0.95;;;8.90;99.90;;;;;;5110254;28;20073;-70
2023/05/31 00:29:15;;;;;;;2.33;0.90;;;8.90;99.90;;;;;;5110010;28;20066;-70
2023/05/31 00:31:41;;;;;;;0.77;0.63;;;8.90;99.90;;;;;;5091459;28;20082;-70
2023/05/31 00:34:10;;;;;;;0.68;0.47;;;8.90;99.90;;;;;;5110299;28;20027;-70
2023/05/31 00:36:35;;;;;;;1.40;0.88;;;8.90;99.90;;;;;;5110220;28;20042;-70
2023/05/31 00:39:02;;;;;;;2.90;1.08;;;8.80;99.90;;;;;;5091017;28;20139;-70
2023/05/31 00:41:27;;;;;;;1.35;0.85;;;8.80;99.90;;;;;;5109954;28;20587;-70
2023/05/31 00:43:53;;;;;;;2.58;1.27;;;8.80;99.90;;;;;;5091888;28;20134;-70
2023/05/31 00:46:27;;;;;;;2.25;0.93;;;8.80;99.90;;;;;;5090958;28;20047;-70
2023/05/31 00:48:53;;;;;;;1.92;0.80;;;8.70;99.90;;;;;;5091597;28;20036;-70
2023/05/31 00:51:19;;;;;;;3.92;1.27;;;8.70;99.90;;;;;;5109118;28;20420;-70
2023/05/31 00:53:46;;;;;;;1.45;0.68;;;8.70;99.90;;;;;;5108610;28;20122;-70
2023/05/31 00:56:13;;;;;;;1.48;0.80;;;8.60;99.90;;;;;;5090661;28;20039;-70
2023/05/31 00:58:41;;;;;;;1.67;1.05;;;8.50;99.90;;;;;;5073189;28;20043;-70
2023/05/31 01:01:08;;;;;;;2.10;0.93;;;8.60;99.90;;;;;;5109176;28;20067;-70
2023/05/31 01:03:34;;;;;;;1.90;0.95;;;8.50;99.90;;;;;;5090874;28;20128;-70
2023/05/31 01:06:01;;;;;;;2.28;1.05;;;8.50;99.90;;;;;;5108396;28;20043;-70
2023/05/31 01:08:28;;;;;;;0.77;0.65;;;8.50;99.90;;;;;;5108633;28;20055;-70
2023/05/31 01:11:00;;;;;;;1.48;1.00;;;8.50;99.90;;;;;;5108654;28;20051;-69
2023/05/31 01:14:00;;;;;;;1.98;0.82;;;8.50;99.90;;;;;;5089759;28;20100;-70
2023/05/31 01:16:33;;;;;;;4.18;0.95;;;8.50;99.90;;;;;;5054402;28;20122;-70
2023/05/31 01:19:03;;;;;;;2.67;1.00;;;8.50;99.90;;;;;;5108927;28;20039;-70
2023/05/31 01:21:32;;;;;;;;;;;8.50;99.90;;;;;;5108699;28;20051;-70
2023/05/31 01:24:34;;;;;;;1.70;0.75;;;8.50;99.90;;;;;;5090697;28;19920;-69
2023/05/31 01:27:01;;;;;;;1.42;0.93;;;8.50;99.90;;;;;;5089517;28;20507;-69
2023/05/31 01:29:30;;;;;;;3.00;1.27;;;8.50;99.90;;;;;;5090573;28;20067;-69
2023/05/31 01:32:01;;;;;;;2.55;1.08;;;8.50;99.90;;;;;;5073428;28;20036;-69
2023/05/31 01:34:26;;;;;;;2.38;1.35;;;8.50;99.90;;;;;;5089727;28;20046;-69
2023/05/31 01:36:52;;;;;;;2.53;1.20;;;8.50;99.90;;;;;;5088901;28;20036;-69
2023/05/31 01:39:21;;;;;;;5.00;1.33;;;8.50;99.90;;;;;;5108753;28;20066;-69
2023/05/31 01:41:48;;;;;;;1.75;0.98;;;8.50;99.90;;;;;;5089762;28;20043;-69
2023/05/31 01:44:18;;;;;;;2.42;1.15;;;8.50;99.90;;;;;;5089964;28;20492;-69
2023/05/31 01:46:45;;;;;;;2.65;0.93;;;8.50;99.90;;;;;;5108505;28;20040;-69
2023/05/31 01:49:12;;;;;;;1.20;0.73;;;8.50;99.90;;;;;;5089266;28;20043;-69
2023/05/31 01:51:40;;;;;;;2.08;0.88;;;8.50;99.90;;;;;;5048289;28;1208871;-69
2023/05/31 01:54:06;;;;;;;5.88;1.02;;;8.50;99.90;;;;;;5090773;28;20047;-68
2023/05/31 01:56:32;;;;;;;1.33;0.88;;;8.40;99.90;;;;;;5073571;28;20035;-69
2023/05/31 01:58:58;;;;;;;1.85;1.13;;;8.40;99.90;;;;;;5090903;28;20051;-69
2023/05/31 02:01:25;;;;;;;2.28;1.02;;;8.40;99.90;;;;;;5090965;28;20040;-69
2023/05/31 02:03:51;;;;;;;1.70;0.80;;;8.40;99.90;;;;;;5090334;28;20394;-69
2023/05/31 02:06:17;;;;;;;2.80;0.90;;;8.40;99.90;;;;;;5090714;28;20097;-69
2023/05/31 02:08:43;;;;;;;1.23;0.55;;;8.40;99.90;;;;;;5108230;28;20043;-69
2023/05/31 02:11:09;;;;;;;1.95;1.02;;;8.30;99.90;;;;;;5109052;28;20035;-69
2023/05/31 02:13:35;;;;;;;2.92;1.10;;;8.30;99.90;;;;;;5073713;28;20036;-69
2023/05/31 02:16:03;;;;;;;1.83;1.05;;;8.30;99.90;;;;;;5090253;28;20119;-68
2023/05/31 02:18:30;;;;;;;4.78;1.30;;;8.40;99.90;;;;;;5108975;28;20050;-69
2023/05/31 02:20:56;;;;;;;3.00;1.02;;;8.30;99.90;;;;;;5073391;28;20043;-69
2023/05/31 02:23:22;;;;;;;1.33;0.75;;;8.30;99.90;;;;;;5090169;28;20047;-69
2023/05/31 02:25:48;;;;;;;1.08;0.43;;;8.30;99.90;;;;;;5090406;28;20381;-68
2023/05/31 02:28:15;;;;;;;0.57;0.45;;;8.30;99.90;;;;;;5090424;28;20036;-68
2023/05/31 02:30:41;;;;;;;0.95;0.40;;;8.30;99.90;;;;;;5089956;28;20605;-68
2023/05/31 02:33:08;;;;;;;2.63;0.47;;;8.30;99.90;;;;;;5108989;28;20032;-68
2023/05/31 02:35:34;;;;;;;1.63;0.52;;;8.20;99.90;;;;;;5108855;28;20086;-69
2023/05/31 02:38:01;;;;;;;1.02;0.40;;;8.10;99.90;;;;;;5072969;28;20495;-68
2023/05/31 02:40:27;;;;;;;1.00;0.43;;;8.10;99.90;;;;;;5090707;28;20036;-68
2023/05/31 02:42:53;;;;;;;1.33;0.63;;;8.00;99.90;;;;;;5090680;28;20533;-68
2023/05/31 02:45:20;;;;;;;0.40;0.30;;;7.90;99.90;;;;;;5108163;28;20097;-68
2023/05/31 02:47:46;;;;;;;3.15;0.88;;;7.90;99.90;;;;;;5073505;28;20040;-68
2023/05/31 02:50:12;;;;;;;1.58;0.95;;;7.90;99.90;;;;;;5111799;28;20059;-68
2023/05/31 02:52:38;;;;;;;1.30;0.75;;;7.90;99.90;;;;;;5111696;28;20039;-68
2023/05/31 02:55:05;;;;;;;0.80;0.45;;;7.80;99.90;;;;;;5093696;28;20046;-68
2023/05/31 02:57:31;;;;;;;0.82;0.60;;;7.80;99.90;;;;;;5093767;28;20123;-68
2023/05/31 03:00:10;;;;;;;1.65;0.70;;;7.80;99.90;;;;;;5111600;28;20123;-68
2023/05/31 03:02:38;;;;;;;1.85;0.75;;;7.80;99.90;;;;;;5094079;28;20065;-67
2023/05/31 03:05:05;;;;;;;4.97;1.30;;;7.80;99.90;;;;;;5093558;28;20462;-67
2023/05/31 03:07:34;;;;;;;2.10;0.90;;;7.80;99.90;;;;;;5112055;28;20040;-67
2023/05/31 03:10:00;;;;;;;1.10;0.60;;;7.80;99.90;;;;;;5111941;28;20031;-67
2023/05/31 03:12:26;;;;;;;2.75;1.00;;;7.80;99.90;;;;;;5111381;28;20044;-67
2023/05/31 03:14:52;;;;;;;2.00;0.82;;;7.80;99.90;;;;;;5093691;28;20506;-67
2023/05/31 03:17:18;;;;;;;2.03;0.90;;;7.80;99.90;;;;;;5111863;28;20039;-67
2023/05/31 03:19:43;;;;;;;6.18;1.48;;;7.80;99.90;;;;;;5092539;28;20035;-67
2023/05/31 03:22:09;;;;;;;1.70;0.85;;;7.90;99.90;;;;;;5076647;28;20043;-67
2023/05/31 03:24:35;;;;;;;4.85;1.27;;;7.90;99.90;;;;;;5111660;28;20028;-68
2023/05/31 03:27:01;;;;;;;1.60;0.80;;;7.90;99.90;;;;;;5111088;28;20399;-67
2023/05/31 03:29:27;;;;;;;3.55;1.55;;;7.90;99.90;;;;;;5111638;28;20050;-67
2023/05/31 03:31:52;;;;;;;2.78;1.02;;;7.90;99.90;;;;;;5111316;28;20118;-67
2023/05/31 03:34:18;;;;;;;3.70;1.13;;;7.90;99.90;;;;;;5110950;28;20154;-67
2023/05/31 03:36:44;;;;;;;6.13;1.95;;;7.90;99.90;;;;;;5093198;28;20508;-67
2023/05/31 03:39:10;;;;;;;2.92;1.60;;;7.90;99.90;;;;;;5093289;28;20046;-67
2023/05/31 03:41:36;;;;;;;4.45;1.23;;;7.90;99.90;;;;;;5075750;28;20040;-67
2023/05/31 03:44:02;;;;;;;1.45;1.10;;;7.90;99.90;;;;;;5093194;28;20108;-67
2023/05/31 03:46:28;;;;;;;2.85;1.30;;;8.00;99.90;;;;;;5111142;28;20035;-67
2023/05/31 03:48:54;;;;;;;1.08;0.65;;;7.90;99.90;;;;;;5110536;28;20035;-67
2023/05/31 03:51:20;;;;;;;2.03;1.13;;;8.00;99.90;;;;;;5110871;28;20075;-67
2023/05/31 03:53:46;;;;;;;1.35;0.93;;;8.00;99.90;;;;;;5091915;28;20461;-67
2023/05/31 03:56:11;;;;;;;1.80;0.80;;;8.00;99.90;;;;;;5092767;28;20039;-67
2023/05/31 03:58:37;;;;;;;2.65;0.93;;;8.00;99.90;;;;;;5092807;28;20039;-67
2023/05/31 04:01:03;;;;;;;5.78;1.13;;;8.00;99.90;;;;;;5075114;28;20040;-67
2023/05/31 04:03:29;;;;;;;2.28;1.13;;;8.10;99.90;;;;;;5093418;28;20043;-67
2023/05/31 04:05:55;;;;;;;2.47;0.90;;;8.10;99.90;;;;;;5093642;28;20036;-67
2023/05/31 04:08:20;;;;;;;1.23;0.88;;;8.10;99.90;;;;;;5092666;28;20487;-67
2023/05/31 04:10:46;;;;;;;2.15;1.00;;;8.10;99.90;;;;;;5076815;28;20039;-67
2023/05/31 04:13:12;;;;;;;2.15;0.82;;;8.20;99.90;;;;;;5111763;28;20110;-67
2023/05/31 04:15:38;;;;;;;1.55;0.88;;;8.10;99.90;;;;;;5111108;28;20561;-67
2023/05/31 04:18:04;;;;;;;1.42;0.80;;;8.20;99.90;;;;;;5093077;28;20403;-67
2023/05/31 04:20:30;;;;;;;2.75;0.77;;;8.20;99.90;;;;;;5093645;28;20048;-67
2023/05/31 04:22:55;;;;;;;2.67;0.77;;;8.20;99.90;;;;;;5111061;28;20414;-67
2023/05/31 04:25:21;;;;;;;1.95;0.75;;;8.20;99.90;;;;;;5092719;28;20491;-67
2023/05/31 04:27:49;;;;;;;2.22;0.60;;;8.30;99.90;;;;;;5091863;28;20043;-67
2023/05/31 04:30:15;;;;;;;3.78;1.52;;;8.40;99.90;;;;;;5091644;28;20036;-67
2023/05/31 04:32:41;;;;;;;2.53;1.20;;;8.40;99.90;;;;;;5092235;28;20110;-67
2023/05/31 04:35:08;;;;;;;1.90;0.82;;;8.50;99.90;;;;;;5092148;28;20448;-67
2023/05/31 04:37:35;;;;;;;6.28;1.30;;;8.50;99.90;;;;;;5109811;28;20407;-67
2023/05/31 04:40:02;;;;;;;1.75;0.98;;;8.60;99.90;;;;;;5075222;28;20051;-67
2023/05/31 04:42:28;;;;;;;2.50;1.00;;;8.70;99.90;;;;;;5075201;28;20431;-67
2023/05/31 04:44:58;;;;;;;4.03;1.42;;;8.80;99.90;;;;;;5091798;28;20036;-68
2023/05/31 04:47:27;;;;;;;1.52;1.00;;;8.90;99.90;;;;;;5091995;28;20039;-68
2023/05/31 04:49:56;;;;;;;2.00;1.00;;;9.00;99.90;;;;;;5070742;28;20056;-67
2023/05/31 04:52:29;;;;;;;2.92;1.67;;;9.10;99.90;;;;;;5088474;28;20047;-68
2023/05/31 04:54:55;;;;;;;2.10;0.95;;;9.30;99.90;;;;;;5088534;28;20480;-67
2023/05/31 04:57:26;;;;;;;2.90;1.40;;;9.40;99.90;;;;;;5087672;28;20503;-67
2023/05/31 04:59:52;;;;;;;4.45;1.52;;;9.50;99.90;;;;;;5088632;28;20074;-68
2023/05/31 05:02:19;;;;;;;2.42;1.20;;;9.60;99.90;;;;;;5088613;28;20303;-67
2023/05/31 05:04:45;;;;;;;2.25;1.00;;;9.80;99.90;;;;;;5089301;28;20480;-67
2023/05/31 05:07:11;;;;;;;3.00;1.50;;;9.90;99.90;;;;;;5088790;28;20048;-68
2023/05/31 05:09:37;;;;;;;2.80;1.05;;;10.00;99.90;;;;;;5088564;28;20043;-68
2023/05/31 05:12:03;;;;;;;9.60;1.70;;;10.10;99.90;;;;;;5088608;28;20547;-69
2023/05/31 05:14:30;;;;;;;3.80;1.67;;;10.20;99.90;;;;;;5089252;28;20043;-69
2023/05/31 05:16:56;;;;;;;3.50;1.63;;;10.30;99.90;;;;;;5089838;28;20046;-70
2023/05/31 05:19:22;;;;;;;3.22;1.65;;;10.40;99.90;;;;;;5087200;28;20036;-70
2023/05/31 05:21:48;;;;;;;4.20;1.90;;;10.50;99.90;;;;;;5088886;28;20097;-71
2023/05/31 05:24:14;;;;;;;2.83;1.75;;;10.70;99.90;;;;;;5088084;28;20050;-71
2023/05/31 05:26:40;;;;;;;3.85;1.75;;;10.80;99.90;;;;;;5087290;28;20079;-71
2023/05/31 05:29:06;;;;;;;3.47;1.65;;;10.90;99.90;;;;;;5087531;28;20086;-71
2023/05/31 05:31:32;;;;;;;3.13;1.83;;;11.00;99.90;;;;;;5087872;28;20032;-71
2023/05/31 05:33:57;;;;;;;4.25;1.83;;;11.10;99.90;;;;;;5088840;28;20040;-71
2023/05/31 05:36:23;;;;;;;4.07;1.73;;;11.20;99.90;;;;;;5089032;28;20060;-72
2023/05/31 05:38:50;;;;;;;4.43;1.48;;;11.30;99.90;;;;;;5086883;28;20074;-68
2023/05/31 05:41:16;;;;;;;5.32;1.77;;;11.40;99.90;;;;;;5087767;28;20040;-69
2023/05/31 05:43:42;;;;;;;2.50;1.33;;;11.60;99.90;;;;;;5088823;28;20381;-69
2023/05/31 05:46:08;;;;;;;3.13;1.55;;;11.70;99.90;;;;;;5087153;28;20040;-68
2023/05/31 05:48:34;;;;;;;2.95;1.40;;;11.80;99.90;;;;;;5087351;28;20036;-69
2023/05/31 05:51:00;;;;;;;2.60;1.80;;;11.90;99.90;;;;;;5087435;28;20056;-70
2023/05/31 05:53:26;;;;;;;3.72;2.08;;;12.10;99.90;;;;;;5086665;28;20040;-67
2023/05/31 05:55:53;;;;;;;3.13;1.30;;;12.20;99.90;;;;;;5087781;28;20112;-72
2023/05/31 05:58:19;;;;;;;5.30;1.70;;;12.30;99.90;;;;;;5089057;28;20044;-71
2023/05/31 06:00:46;;;;;;;4.20;1.55;;;12.40;99.90;;;;;;5086922;28;20044;-70
2023/05/31 06:03:12;;;;;;;3.20;1.75;;;12.50;99.90;;;;;;5077411;28;20096;-70
2023/05/31 06:05:39;;;;;;;3.65;1.50;;;12.60;99.90;;;;;;5082976;28;20093;-71
2023/05/31 06:08:05;;;;;;;3.25;1.17;;;12.80;99.90;;;;;;5060862;28;20509;-70
2023/05/31 06:10:31;;;;;;;8.10;1.67;;;12.90;99.90;;;;;;5056872;28;20035;-70
2023/05/31 06:12:57;;;;;;;2.83;1.45;;;13.10;99.90;;;;;;5074774;28;20518;-71
2023/05/31 06:15:23;;;;;;;4.43;1.77;;;13.20;99.90;;;;;;5086619;28;20557;-70
2023/05/31 06:17:49;;;;;;;3.05;1.38;;;13.40;99.90;;;;;;5088460;28;20031;-69
2023/05/31 06:20:16;;;;;;;2.72;1.08;;;13.50;99.90;;;;;;5072890;28;20137;-69
2023/05/31 06:22:42;;;;;;;3.53;1.80;;;13.70;99.90;;;;;;5082043;28;20173;-69
2023/05/31 06:25:08;;;;;;;3.08;1.77;;;13.80;99.90;;;;;;5082163;28;20097;-67
2023/05/31 06:27:35;;;;;;;4.15;2.00;;;14.00;99.90;;;;;;5084660;28;20495;-67
2023/05/31 06:30:04;;;;;;;3.28;1.30;;;14.10;99.90;;;;;;5080980;28;20073;-67
2023/05/31 06:32:30;;;;;;;3.92;1.40;;;14.40;99.90;;;;;;5064123;28;20037;-67
2023/05/31 06:34:59;;;;;;;2.30;1.30;;;14.60;99.90;;;;;;5078351;28;20401;-68
2023/05/31 06:37:25;;;;;;;3.03;1.67;;;14.90;99.90;;;;;;5084779;28;20036;-68
2023/05/31 06:39:51;;;;;;;3.63;1.98;;;15.10;99.90;;;;;;5082765;28;20113;-68
2023/05/31 06:42:17;;;;;;;2.83;1.50;;;15.40;99.90;;;;;;5076291;28;20040;-70
2023/05/31 06:44:43;;;;;;;3.00;1.45;;;15.60;99.90;;;;;;5077843;28;20085;-68
2023/05/31 06:47:09;;;;;;;3.45;1.70;;;15.90;99.90;;;;;;5080247;28;20052;-68
2023/05/31 06:49:35;;;;;;;4.57;1.35;;;16.10;99.90;;;;;;5083701;28;20043;-68
2023/05/31 06:52:01;;;;;;;3.60;1.30;;;16.20;99.90;;;;;;5090301;28;20048;-69
2023/05/31 06:54:28;;;;;;;5.07;1.60;;;16.40;99.90;;;;;;5101090;28;20032;-70
2023/05/31 06:56:54;;;;;;;4.82;1.33;;;16.70;99.90;;;;;;5091150;28;20089;-70
2023/05/31 06:59:20;;;;;;;5.35;1.10;;;16.80;99.90;;;;;;5083388;28;20472;-71
2023/05/31 07:01:46;;;;;;;5.88;1.48;;;17.00;99.90;;;;;;5109307;28;20066;-69
2023/05/31 07:04:12;;;;;;;3.95;1.48;;;17.20;99.90;;;;;;5078988;28;20097;-69
2023/05/31 07:06:38;;;;;;;5.18;1.75;;;17.40;99.90;;;;;;5083782;28;20048;-69
2023/05/31 07:09:06;;;;;;;3.53;1.52;;;17.60;99.90;;;;;;5082860;28;20035;-69
2023/05/31 07:11:32;;;;;;;2.13;1.02;;;17.70;99.90;;;;;;5104120;28;20089;-70
2023/05/31 07:14:01;;;;;;;3.95;1.35;;;17.90;99.90;;;;;;5085522;28;20040;-70
2023/05/31 07:16:30;;;;;;;3.30;1.60;;;18.20;99.90;;;;;;5090969;28;20031;-70
2023/05/31 07:18:56;;;;;;;5.38;1.48;;;18.40;99.90;;;;;;5107026;28;20039;-70
2023/05/31 07:21:23;;;;;;;3.60;1.27;;;18.60;99.90;;;;;;5090770;28;20046;-69
2023/05/31 07:23:49;;;;;;;4.38;1.65;;;18.80;99.90;;;;;;5104343;28;20051;-69
2023/05/31 07:26:15;;;;;;;3.90;1.50;;;19.00;99.90;;;;;;5105292;28;20032;-70
2023/05/31 07:28:45;;;;;;;2.28;1.17;;;19.10;99.90;;;;;;5082204;28;20437;-70
2023/05/31 07:31:12;;;;;;;2.95;1.70;;;19.30;99.90;;;;;;5088595;28;20045;-70
2023/05/31 07:33:38;;;;;;;3.22;1.33;;;19.40;99.90;;;;;;5084280;28;20039;-70
2023/05/31 07:36:04;;;;;;;15.40;5.97;;;19.60;99.90;;;;;;5079185;28;20040;-70
2023/05/31 07:38:30;;;;;;;2.45;1.23;;;19.70;99.90;;;;;;5106944;28;20107;-69
2023/05/31 07:40:56;;;;;;;3.05;1.35;;;19.70;99.90;;;;;;5067244;28;20543;-69
2023/05/31 07:43:23;;;;;;;3.70;1.70;;;19.80;99.90;;;;;;5078137;28;20044;-70
2023/05/31 07:45:50;;;;;;;4.13;1.52;;;19.90;99.90;;;;;;5104195;28;20556;-69
2023/05/31 07:48:19;;;;;;;3.90;1.67;;;20.10;99.90;;;;;;5100542;28;20392;-69
2023/05/31 07:50:45;;;;;;;4.47;1.60;;;20.30;99.90;;;;;;5069619;28;20050;-70
2023/05/31 07:53:12;;;;;;;1.63;0.88;;;20.60;99.90;;;;;;5058728;28;20631;-72
2023/05/31 07:55:37;;;;;;;2.92;1.38;;;20.80;99.90;;;;;;5063107;28;20033;-69
2023/05/31 07:58:03;;;;;;;3.75;1.10;;;21.00;99.90;;;;;;5061842;28;20047;-70
2023/05/31 08:00:30;;;;;;;2.97;1.40;;;21.20;99.90;;;;;;5064899;28;20075;-69
2023/05/31 08:02:55;;;;;;;2.60;1.40;;;21.30;99.90;;;;;;5056112;28;20053;-71
2023/05/31 08:05:21;;;;;;;2.35;1.23;;;21.30;99.90;;;;;;5058271;28;20043;-70
2023/05/31 08:07:48;;;;;;;3.65;1.83;;;21.40;99.90;;;;;;5061619;28;20039;-70
2023/05/31 08:10:15;;;;;;;6.95;2.15;;;21.60;99.90;;;;;;5068831;28;20036;-70
2023/05/31 08:12:41;;;;;;;2.83;1.20;;;21.70;99.90;;;;;;5068509;28;20060;-72
2023/05/31 08:15:07;;;;;;;4.60;1.52;;;21.90;99.90;;;;;;5066625;28;20397;-72
2023/05/31 08:17:33;;;;;;;2.97;1.10;;;22.00;99.90;;;;;;5069071;28;20404;-73
2023/05/31 08:19:59;;;;;;;4.43;1.13;;;22.10;99.90;;;;;;5058485;28;20120;-71
2023/05/31 08:22:25;;;;;;;3.80;1.40;;;22.20;99.90;;;;;;5052507;28;20033;-72
2023/05/31 08:24:51;;;;;;;4.07;1.30;;;22.30;99.90;;;;;;5048643;28;20051;-72
2023/05/31 08:27:17;;;;;;;7.03;1.95;;;22.50;99.90;;;;;;5066514;28;20047;-74
2023/05/31 08:29:43;;;;;;;3.97;1.40;;;22.60;99.90;;;;;;5067591;28;20036;-73
2023/05/31 08:32:09;;;;;;;2.63;1.40;;;22.70;99.90;;;;;;5061103;28;20123;-72
2023/05/31 08:34:35;;;;;;;4.30;1.42;;;22.70;99.90;;;;;;5057958;28;20036;-69
2023/05/31 08:37:01;;;;;;;2.70;1.15;;;22.80;99.90;;;;;;5041350;28;20036;-70
2023/05/31 08:39:29;;;;;;;2.97;1.00;;;22.90;99.90;;;;;;5065311;28;20046;-69
2023/05/31 08:42:10;;;;;;;4.65;1.67;;;23.10;99.90;;;;;;5056062;28;20086;-69
2023/05/31 08:44:36;;;;;;;3.30;1.65;;;23.20;99.90;;;;;;5063025;28;20040;-69
2023/05/31 08:47:12;;;;;;;4.68;1.27;;;23.40;99.90;;;;;;5067594;28;20111;-69
2023/05/31 08:49:40;;;;;;;2.08;1.00;;;23.50;99.90;;;;;;5071228;28;20509;-69
2023/05/31 08:52:07;;;;;;;2.58;1.27;;;23.60;99.90;;;;;;5087533;28;20075;-68
2023/05/31 08:54:35;;;;;;;3.65;1.20;;;23.90;99.90;;;;;;5082482;28;20483;-69
2023/05/31 08:57:03;;;;;;;2.45;1.38;;;24.10;99.90;;;;;;5082006;28;20091;-68
2023/05/31 08:59:30;;;;;;;2.67;1.10;;;24.20;99.90;;;;;;5081461;28;20051;-67
2023/05/31 09:01:57;;;;;;;4.43;1.20;;;24.40;99.90;;;;;;5078854;28;20088;-69
2023/05/31 09:04:25;;;;;;;2.47;0.95;;;24.40;99.90;;;;;;5083302;28;20039;-70
2023/05/31 09:06:51;;;;;;;2.35;1.02;;;24.20;99.90;;;;;;5081618;28;20039;-70
2023/05/31 09:09:18;;;;;;;4.85;1.55;;;24.20;99.90;;;;;;5102289;28;20050;-70
2023/05/31 09:11:45;;;;;;;1.73;1.00;;;24.30;99.90;;;;;;5085878;28;20104;-70
2023/05/31 09:14:11;;;;;;;2.22;0.77;;;24.20;99.90;;;;;;5065980;28;20403;-71
2023/05/31 09:16:37;;;;;;;3.00;1.17;;;24.40;99.90;;;;;;5084118;28;20111;-68
2023/05/31 09:19:05;;;;;;;4.78;1.15;;;24.70;99.90;;;;;;5066581;28;20055;-67
2023/05/31 09:21:42;;;;;;;3.45;1.20;;;24.90;99.40;;;;;;5106059;28;20043;-67
2023/05/31 09:24:10;;;;;;;4.70;1.65;;;24.90;96.00;;;;;;5080882;28;20104;-68
2023/05/31 09:26:48;;;;;;;5.80;1.20;;;24.90;97.40;;;;;;5088720;28;20050;-67
2023/05/31 09:29:15;;;;;;;4.83;1.33;;;24.70;97.30;;;;;;5098533;28;20484;-68
2023/05/31 09:31:41;;;;;;;2.75;1.20;;;24.40;98.10;;;;;;5083834;28;20162;-68
2023/05/31 09:34:27;;;;;;;2.88;1.48;;;24.20;98.60;;;;;;5088713;28;20117;-68
2023/05/31 09:36:57;;;;;;;3.78;1.42;;;24.30;97.40;;;;;;5105483;28;20423;-69
2023/05/31 09:39:23;;;;;;;3.50;1.33;;;24.30;98.40;;;;;;5103385;28;20082;-68
2023/05/31 09:41:51;;;;;;;2.60;1.10;;;24.50;98.50;;;;;;5059675;28;20487;-71
2023/05/31 09:44:17;;;;;;;4.43;1.50;;;24.80;97.30;;;;;;5071516;28;20368;-69
2023/05/31 09:46:46;;;;;;;3.05;1.35;;;24.90;96.30;;;;;;5078970;28;20429;-69
2023/05/31 09:49:12;;;;;;;2.90;1.20;;;25.00;96.00;;;;;;5091905;28;20044;-68
2023/05/31 09:51:38;;;;;;;3.70;1.23;;;25.00;95.80;;;;;;5071239;28;20043;-71
2023/05/31 09:54:13;;;;;;;2.42;1.10;;;25.00;95.70;;;;;;5087672;28;20043;-72
2023/05/31 09:56:41;;;;;;;3.75;1.42;;;24.70;94.80;;;;;;5089888;28;20064;-72
2023/05/31 09:59:07;;;;;;;3.35;1.52;;;24.70;96.20;;;;;;5091922;28;20047;-72
2023/05/31 10:01:34;;;;;;;2.20;0.90;;;24.80;95.60;;;;;;5094266;28;20051;-72
2023/05/31 10:04:05;;;;;;;2.38;0.98;;;24.80;95.70;;;;;;5079598;28;20047;-71
2023/05/31 10:06:34;;;;;;;2.65;1.30;;;24.50;94.40;;;;;;5079948;28;20040;-74
2023/05/31 10:09:07;;;;;;;2.67;1.20;;;24.30;94.50;;;;;;5093327;28;20040;-72
2023/05/31 10:11:35;;;;;;;3.30;1.42;;;24.30;95.30;;;;;;5092126;28;20483;-74
2023/05/31 10:14:12;;;;;;;4.30;1.45;;;24.20;94.50;;;;;;5078731;28;20055;-72
2023/05/31 10:16:48;;;;;;;1.98;1.05;;;23.90;94.70;;;;;;5049295;28;20064;-72
2023/05/31 10:19:31;;;;;;;2.97;1.45;;;23.80;95.00;;;;;;5077463;28;20059;-72
2023/05/31 10:22:00;;;;;;;2.72;0.80;;;24.10;96.00;;;;;;5073465;28;20125;-71
2023/05/31 10:24:33;;;;;;;2.45;1.08;;;24.20;94.70;;;;;;5052418;28;20485;-71
2023/05/31 10:27:25;;;;;;;2.25;1.10;;;24.00;94.50;;;;;;5073363;28;20084;-72
2023/05/31 10:29:55;;;;;;;3.00;1.02;;;23.90;94.20;;;;;;5074635;28;20048;-74
2023/05/31 10:32:28;;;;;;;3.55;1.13;;;23.80;94.80;;;;;;5083421;28;20542;-70
2023/05/31 10:34:55;;;;;;;3.85;1.35;;;23.70;94.70;;;;;;5075295;28;20048;-72
2023/05/31 10:37:21;;;;;;;3.97;1.10;;;23.70;95.30;;;;;;5081746;28;20031;-67
2023/05/31 10:40:22;;;;;;;2.33;1.15;;;23.60;94.60;;;;;;5053463;28;20396;-71
2023/05/31 10:43:16;;;;;;;2.00;1.15;;;23.50;95.00;;;;;;5050074;28;20048;-69
2023/05/31 10:46:00;;;;;;;1.63;0.85;;;23.80;96.60;;;;;;5067607;28;20045;-71
2023/05/31 10:48:33;;;;;;;1.85;0.80;;;24.30;96.60;;;;;;5073150;28;20091;-71
2023/05/31 10:51:00;;;;;;;1.98;0.90;;;24.70;96.80;;;;;;5077589;28;20102;-72
2023/05/31 10:53:35;;;;;;;1.95;1.15;;;25.10;96.50;;;;;;5081979;28;20051;-70
2023/05/31 10:56:07;;;;;;;2.85;1.20;;;25.10;95.20;;;;;;5086052;28;20036;-73
2023/05/31 10:58:52;;;;;;;2.42;1.27;;;24.90;95.50;;;;;;5082596;28;20036;-70
2023/05/31 11:01:21;;;;;;;2.85;0.90;;;24.90;95.40;;;;;;5080448;28;20119;-71
2023/05/31 11:04:01;;;;;;;2.50;1.15;;;24.80;95.40;;;;;;5074032;28;20111;-70
2023/05/31 11:06:30;;;;;;;4.18;0.90;;;25.00;95.90;;;;;;5087866;28;20051;-73
2023/05/31 11:09:15;;;;;;;3.50;1.25;;;24.90;95.40;;;;;;5081060;28;20469;-72
2023/05/31 11:11:46;;;;;;;3.35;1.50;;;24.90;95.80;;;;;;5080800;28;20399;-71
2023/05/31 11:14:15;;;;;;;2.40;1.05;;;24.90;96.60;;;;;;5080354;28;20047;-73
2023/05/31 11:16:47;;;;;;;1.88;0.93;;;25.10;95.70;;;;;;5078573;28;20060;-71
2023/05/31 11:19:17;;;;;;;3.83;1.27;;;25.20;96.30;;;;;;5086079;28;20404;-71
2023/05/31 11:21:55;;;;;;;1.63;0.90;;;25.30;96.10;;;;;;5083010;28;20077;-73
2023/05/31 11:24:35;;;;;;;2.20;1.25;;;25.40;94.20;;;;;;5083438;28;20485;-72
2023/05/31 11:27:03;;;;;;;1.85;1.08;;;25.30;93.20;;;;;;5062001;28;20040;-69
2023/05/31 11:29:52;;;;;;;5.43;1.50;;;25.20;95.30;;;;;;5076291;28;20037;-68
2023/05/31 11:32:25;;;;;;;3.65;1.42;;;25.20;94.60;;;;;;5071977;28;20098;-70
2023/05/31 11:35:00;;;;;;;2.58;1.20;;;25.30;95.30;;;;;;5066195;28;20036;-66
2023/05/31 11:37:34;;;;;;;2.58;1.10;;;25.50;95.20;;;;;;5080983;28;20032;-68
2023/05/31 11:40:02;;;;;;;2.10;1.10;;;25.60;95.10;;;;;;5078754;28;20100;-68
2023/05/31 11:42:31;;;;;;;5.57;2.00;;;25.60;94.40;;;;;;5088588;28;20036;-69
2023/05/31 11:45:04;;;;;;;4.63;1.10;;;25.50;94.40;;;;;;5082694;28;20093;-67
2023/05/31 11:47:56;;;;;;;3.70;1.23;;;25.40;94.50;;;;;;5060536;28;20098;-69
2023/05/31 11:50:24;;;;;;;2.28;0.95;;;25.40;94.20;;;;;;5089932;28;20053;-67
2023/05/31 11:52:54;;;;;;;6.97;1.70;;;25.50;94.90;;;;;;5079701;28;20097;-67
2023/05/31 11:55:20;;;;;;;1.73;1.08;;;25.50;94.80;;;;;;5077857;28;20270;-67
2023/05/31 11:57:51;;;;;;;2.47;1.13;;;25.60;95.10;;;;;;5082933;28;20071;-67
2023/05/31 12:00:21;;;;;;;3.03;1.42;;;25.50;94.80;;;;;;5070040;28;20043;-67
2023/05/31 12:02:52;;;;;;;2.95;1.40;;;25.50;94.70;;;;;;5084556;28;20040;-67
2023/05/31 12:05:18;;;;;;;1.95;0.98;;;25.50;94.60;;;;;;5084909;28;20070;-66
2023/05/31 12:07:45;;;;;;;2.95;1.13;;;25.50;94.50;;;;;;5083315;28;20047;-66
2023/05/31 12:10:11;;;;;;;1.60;1.00;;;25.50;94.70;;;;;;5087552;28;20032;-68
2023/05/31 12:12:42;;;;;;;3.65;1.60;;;25.50;93.70;;;;;;5078943;28;20043;-67
2023/05/31 12:15:12;;;;;;;3.78;1.40;;;25.40;94.10;;;;;;5086158;28;20071;-68
2023/05/31 12:17:38;;;;;;;2.75;1.27;;;25.30;93.90;;;;;;5084211;28;20500;-66
2023/05/31 12:20:13;;;;;;;3.45;1.70;;;25.20;93.90;;;;;;5062651;28;20039;-66
2023/05/31 12:22:40;;;;;;;4.07;1.30;;;25.00;93.70;;;;;;5079281;28;20135;-67
2023/05/31 12:25:06;;;;;;;1.58;1.02;;;25.00;92.70;;;;;;5100525;28;20097;-67
2023/05/31 12:27:33;;;;;;;2.47;1.20;;;24.90;93.60;;;;;;5060273;28;20476;-67
2023/05/31 12:30:02;;;;;;;5.10;1.65;;;24.90;93.40;;;;;;5065419;28;20143;-67
2023/05/31 12:32:28;;;;;;;4.85;1.27;;;24.90;93.40;;;;;;5082446;28;20036;-66
2023/05/31 12:35:08;;;;;;;3.38;1.20;;;24.90;93.50;;;;;;5105812;28;20391;-68
2023/05/31 12:37:38;;;;;;;3.15;1.38;;;24.90;92.30;;;;;;5084661;28;20677;-66
2023/05/31 12:40:09;;;;;;;3.38;1.73;;;24.80;92.40;;;;;;5067446;28;20115;-66
2023/05/31 12:42:35;;;;;;;2.35;1.25;;;24.70;92.70;;;;;;5079155;28;20032;-66
2023/05/31 12:45:08;;;;;;;4.65;1.38;;;24.60;92.40;;;;;;5082765;28;20106;-69
2023/05/31 12:47:35;;;;;;;5.22;1.35;;;24.50;92.20;;;;;;5079966;28;20047;-66
2023/05/31 12:50:06;;;;;;;2.47;1.10;;;24.20;92.30;;;;;;5080983;28;20047;-69
2023/05/31 12:52:40;;;;;;;2.13;1.20;;;24.10;92.40;;;;;;5060507;28;20048;-69
2023/05/31 12:55:07;;;;;;;3.05;1.33;;;24.10;92.60;;;;;;5064950;28;20434;-69